sensor_id;sensor_type;location;lat;lon;timestamp;P1;durP1;ratioP1;P2;durP2;ratioP2
19057;SDS011;9662;53.612;9.914;2022-08-21T00:00:05;3.63;;;3.05;;
19057;SDS011;9662;53.612;9.914;2022-08-21T00:02:35;3.92;;;3.63;;
19057;SDS011;9662;53.612;9.914;2022-08-21T00:05:03;5.75;;;3.60;;
19057;SDS011;9662;53.612;9.914;2022-08-21T00:07:31;3.70;;;3.40;;
19057;SDS011;9662;53.612;9.914;2022-08-21T00:09:58;3.40;;;3.10;;
19057;SDS011;9662;53.612;9.914;2022-08-21T00:12:24;6.90;;;3.50;;
19057;SDS011;9662;53.612;9.914;2022-08-21T00:14:52;3.70;;;3.40;;
19057;SDS011;9662;53.612;9.914;2022-08-21T00:17:18;3.47;;;3.17;;
19057;SDS011;9662;53.612;9.914;2022-08-21T00:19:45;5.50;;;3.50;;
19057;SDS011;9662;53.612;9.914;2022-08-21T00:22:13;4.07;;;3.53;;
19057;SDS011;9662;53.612;9.914;2022-08-21T00:24:40;4.20;;;3.80;;
19057;SDS011;9662;53.612;9.914;2022-08-21T00:27:07;3.55;;;3.35;;
19057;SDS011;9662;53.612;9.914;2022-08-21T00:29:34;4.60;;;3.65;;
19057;SDS011;9662;53.612;9.914;2022-08-21T00:32:01;4.10;;;3.72;;
19057;SDS011;9662;53.612;9.914;2022-08-21T00:34:27;4.03;;;3.73;;
19057;SDS011;9662;53.612;9.914;2022-08-21T00:36:54;5.80;;;4.07;;
19057;SDS011;9662;53.612;9.914;2022-08-21T00:39:23;4.15;;;3.65;;
19057;SDS011;9662;53.612;9.914;2022-08-21T00:41:49;7.32;;;4.18;;
19057;SDS011;9662;53.612;9.914;2022-08-21T00:44:16;4.53;;;4.07;;
19057;SDS011;9662;53.612;9.914;2022-08-21T00:46:43;3.97;;;3.53;;
19057;SDS011;9662;53.612;9.914;2022-08-21T00:49:11;4.40;;;4.00;;
19057;SDS011;9662;53.612;9.914;2022-08-21T00:51:39;4.47;;;3.90;;
19057;SDS011;9662;53.612;9.914;2022-08-21T00:54:13;4.30;;;3.58;;
19057;SDS011;9662;53.612;9.914;2022-08-21T00:56:42;3.93;;;3.37;;
19057;SDS011;9662;53.612;9.914;2022-08-21T00:59:10;4.50;;;3.65;;
19057;SDS011;9662;53.612;9.914;2022-08-21T01:01:37;4.50;;;4.10;;
19057;SDS011;9662;53.612;9.914;2022-08-21T01:04:04;3.72;;;3.50;;
19057;SDS011;9662;53.612;9.914;2022-08-21T01:06:31;4.03;;;3.70;;
19057;SDS011;9662;53.612;9.914;2022-08-21T01:08:58;3.60;;;3.40;;
19057;SDS011;9662;53.612;9.914;2022-08-21T01:11:25;3.63;;;3.38;;
19057;SDS011;9662;53.612;9.914;2022-08-21T01:13:53;7.70;;;3.70;;
19057;SDS011;9662;53.612;9.914;2022-08-21T01:16:20;3.90;;;3.58;;
19057;SDS011;9662;53.612;9.914;2022-08-21T01:18:48;5.45;;;3.28;;
19057;SDS011;9662;53.612;9.914;2022-08-21T01:21:18;5.15;;;3.53;;
19057;SDS011;9662;53.612;9.914;2022-08-21T01:23:47;4.15;;;3.75;;
19057;SDS011;9662;53.612;9.914;2022-08-21T01:26:18;4.23;;;3.63;;
19057;SDS011;9662;53.612;9.914;2022-08-21T01:28:48;4.35;;;3.50;;
19057;SDS011;9662;53.612;9.914;2022-08-21T01:31:18;7.20;;;3.97;;
19057;SDS011;9662;53.612;9.914;2022-08-21T01:33:48;3.53;;;3.33;;
19057;SDS011;9662;53.612;9.914;2022-08-21T01:36:15;3.55;;;3.25;;
19057;SDS011;9662;53.612;9.914;2022-08-21T01:38:43;3.40;;;3.20;;
19057;SDS011;9662;53.612;9.914;2022-08-21T01:41:12;4.03;;;3.05;;
19057;SDS011;9662;53.612;9.914;2022-08-21T01:43:39;4.05;;;3.47;;
19057;SDS011;9662;53.612;9.914;2022-08-21T01:46:06;3.63;;;3.47;;
19057;SDS011;9662;53.612;9.914;2022-08-21T01:48:33;3.22;;;3.03;;
19057;SDS011;9662;53.612;9.914;2022-08-21T01:51:00;3.42;;;3.17;;
19057;SDS011;9662;53.612;9.914;2022-08-21T01:53:27;3.90;;;3.60;;
19057;SDS011;9662;53.612;9.914;2022-08-21T01:55:55;3.40;;;3.10;;
19057;SDS011;9662;53.612;9.914;2022-08-21T01:58:22;3.47;;;3.17;;
19057;SDS011;9662;53.612;9.914;2022-08-21T02:00:49;3.70;;;3.50;;
19057;SDS011;9662;53.612;9.914;2022-08-21T02:03:15;3.05;;;2.92;;
19057;SDS011;9662;53.612;9.914;2022-08-21T02:05:42;3.53;;;3.22;;
19057;SDS011;9662;53.612;9.914;2022-08-21T02:08:09;3.53;;;3.33;;
19057;SDS011;9662;53.612;9.914;2022-08-21T02:10:36;2.83;;;2.63;;
19057;SDS011;9662;53.612;9.914;2022-08-21T02:13:04;3.37;;;3.07;;
19057;SDS011;9662;53.612;9.914;2022-08-21T02:15:32;3.10;;;2.90;;
19057;SDS011;9662;53.612;9.914;2022-08-21T02:18:00;4.70;;;3.03;;
19057;SDS011;9662;53.612;9.914;2022-08-21T02:20:28;3.53;;;3.22;;
19057;SDS011;9662;53.612;9.914;2022-08-21T02:22:56;3.50;;;3.30;;
19057;SDS011;9662;53.612;9.914;2022-08-21T02:25:25;4.88;;;3.35;;
19057;SDS011;9662;53.612;9.914;2022-08-21T02:27:52;2.80;;;2.67;;
19057;SDS011;9662;53.612;9.914;2022-08-21T02:30:22;3.30;;;3.10;;
19057;SDS011;9662;53.612;9.914;2022-08-21T02:32:50;3.55;;;3.13;;
19057;SDS011;9662;53.612;9.914;2022-08-21T02:35:17;3.25;;;2.95;;
19057;SDS011;9662;53.612;9.914;2022-08-21T02:37:46;3.60;;;2.87;;
19057;SDS011;9662;53.612;9.914;2022-08-21T02:40:14;4.43;;;2.80;;
19057;SDS011;9662;53.612;9.914;2022-08-21T02:42:43;3.15;;;2.90;;
19057;SDS011;9662;53.612;9.914;2022-08-21T02:45:10;2.95;;;2.75;;
19057;SDS011;9662;53.612;9.914;2022-08-21T02:47:39;3.00;;;2.80;;
19057;SDS011;9662;53.612;9.914;2022-08-21T02:50:12;2.63;;;2.53;;
19057;SDS011;9662;53.612;9.914;2022-08-21T02:52:39;3.00;;;2.78;;
19057;SDS011;9662;53.612;9.914;2022-08-21T02:55:05;2.90;;;2.75;;
19057;SDS011;9662;53.612;9.914;2022-08-21T02:57:32;2.88;;;2.67;;
19057;SDS011;9662;53.612;9.914;2022-08-21T02:59:59;2.93;;;2.70;;
19057;SDS011;9662;53.612;9.914;2022-08-21T03:02:26;3.25;;;2.85;;
19057;SDS011;9662;53.612;9.914;2022-08-21T03:04:54;3.10;;;2.90;;
19057;SDS011;9662;53.612;9.914;2022-08-21T03:07:21;3.67;;;3.00;;
19057;SDS011;9662;53.612;9.914;2022-08-21T03:09:47;2.75;;;2.65;;
19057;SDS011;9662;53.612;9.914;2022-08-21T03:12:14;3.00;;;2.80;;
19057;SDS011;9662;53.612;9.914;2022-08-21T03:14:41;5.30;;;2.93;;
19057;SDS011;9662;53.612;9.914;2022-08-21T03:17:08;2.75;;;2.60;;
19057;SDS011;9662;53.612;9.914;2022-08-21T03:19:35;3.63;;;2.92;;
19057;SDS011;9662;53.612;9.914;2022-08-21T03:22:03;2.92;;;2.72;;
19057;SDS011;9662;53.612;9.914;2022-08-21T03:24:31;2.90;;;2.60;;
19057;SDS011;9662;53.612;9.914;2022-08-21T03:26:57;2.60;;;2.50;;
19057;SDS011;9662;53.612;9.914;2022-08-21T03:29:24;2.83;;;2.22;;
19057;SDS011;9662;53.612;9.914;2022-08-21T03:31:52;2.80;;;2.60;;
19057;SDS011;9662;53.612;9.914;2022-08-21T03:34:19;3.90;;;2.30;;
19057;SDS011;9662;53.612;9.914;2022-08-21T03:36:46;2.47;;;2.30;;
19057;SDS011;9662;53.612;9.914;2022-08-21T03:39:15;2.43;;;2.33;;
19057;SDS011;9662;53.612;9.914;2022-08-21T03:41:43;3.40;;;2.30;;
19057;SDS011;9662;53.612;9.914;2022-08-21T03:44:10;2.28;;;2.17;;
19057;SDS011;9662;53.612;9.914;2022-08-21T03:46:37;3.20;;;2.47;;
19057;SDS011;9662;53.612;9.914;2022-08-21T03:49:05;2.28;;;2.17;;
19057;SDS011;9662;53.612;9.914;2022-08-21T03:51:31;2.40;;;2.20;;
19057;SDS011;9662;53.612;9.914;2022-08-21T03:54:00;2.15;;;2.05;;
19057;SDS011;9662;53.612;9.914;2022-08-21T03:56:28;2.50;;;2.40;;
19057;SDS011;9662;53.612;9.914;2022-08-21T03:58:55;2.90;;;2.50;;
19057;SDS011;9662;53.612;9.914;2022-08-21T04:01:22;2.40;;;2.30;;
19057;SDS011;9662;53.612;9.914;2022-08-21T04:03:49;4.05;;;2.50;;
19057;SDS011;9662;53.612;9.914;2022-08-21T04:06:16;2.30;;;2.10;;
19057;SDS011;9662;53.612;9.914;2022-08-21T04:08:43;2.35;;;2.10;;
19057;SDS011;9662;53.612;9.914;2022-08-21T04:11:09;2.88;;;2.20;;
19057;SDS011;9662;53.612;9.914;2022-08-21T04:13:38;2.35;;;2.25;;
19057;SDS011;9662;53.612;9.914;2022-08-21T04:16:05;2.55;;;2.35;;
19057;SDS011;9662;53.612;9.914;2022-08-21T04:18:33;2.55;;;2.35;;
19057;SDS011;9662;53.612;9.914;2022-08-21T04:20:59;4.25;;;2.08;;
19057;SDS011;9662;53.612;9.914;2022-08-21T04:23:29;2.10;;;1.98;;
19057;SDS011;9662;53.612;9.914;2022-08-21T04:25:56;2.22;;;2.13;;
19057;SDS011;9662;53.612;9.914;2022-08-21T04:28:23;2.63;;;2.42;;
19057;SDS011;9662;53.612;9.914;2022-08-21T04:30:53;2.17;;;2.08;;
19057;SDS011;9662;53.612;9.914;2022-08-21T04:33:20;2.10;;;2.00;;
19057;SDS011;9662;53.612;9.914;2022-08-21T04:35:47;3.30;;;2.10;;
19057;SDS011;9662;53.612;9.914;2022-08-21T04:38:15;2.60;;;2.30;;
19057;SDS011;9662;53.612;9.914;2022-08-21T04:40:42;2.30;;;2.20;;
19057;SDS011;9662;53.612;9.914;2022-08-21T04:43:09;3.80;;;2.25;;
19057;SDS011;9662;53.612;9.914;2022-08-21T04:45:37;2.67;;;2.42;;
19057;SDS011;9662;53.612;9.914;2022-08-21T04:48:07;3.92;;;2.28;;
19057;SDS011;9662;53.612;9.914;2022-08-21T04:50:36;2.22;;;2.13;;
19057;SDS011;9662;53.612;9.914;2022-08-21T04:53:09;2.33;;;2.13;;
19057;SDS011;9662;53.612;9.914;2022-08-21T04:55:39;2.00;;;1.90;;
19057;SDS011;9662;53.612;9.914;2022-08-21T04:58:07;2.13;;;2.10;;
19057;SDS011;9662;53.612;9.914;2022-08-21T05:00:37;2.40;;;2.30;;
19057;SDS011;9662;53.612;9.914;2022-08-21T05:03:08;2.35;;;2.05;;
19057;SDS011;9662;53.612;9.914;2022-08-21T05:05:37;2.08;;;1.98;;
19057;SDS011;9662;53.612;9.914;2022-08-21T05:08:04;5.40;;;2.50;;
19057;SDS011;9662;53.612;9.914;2022-08-21T05:10:33;2.20;;;2.10;;
19057;SDS011;9662;53.612;9.914;2022-08-21T05:13:00;1.83;;;1.80;;
19057;SDS011;9662;53.612;9.914;2022-08-21T05:15:28;2.60;;;2.22;;
19057;SDS011;9662;53.612;9.914;2022-08-21T05:17:55;3.47;;;2.10;;
19057;SDS011;9662;53.612;9.914;2022-08-21T05:20:23;4.90;;;2.40;;
19057;SDS011;9662;53.612;9.914;2022-08-21T05:22:50;6.50;;;2.10;;
19057;SDS011;9662;53.612;9.914;2022-08-21T05:25:17;2.10;;;2.00;;
19057;SDS011;9662;53.612;9.914;2022-08-21T05:27:44;3.30;;;2.00;;
19057;SDS011;9662;53.612;9.914;2022-08-21T05:30:11;2.17;;;2.07;;
19057;SDS011;9662;53.612;9.914;2022-08-21T05:32:38;2.05;;;1.95;;
19057;SDS011;9662;53.612;9.914;2022-08-21T05:35:05;2.37;;;2.17;;
19057;SDS011;9662;53.612;9.914;2022-08-21T05:37:35;3.00;;;1.95;;
19057;SDS011;9662;53.612;9.914;2022-08-21T05:40:02;3.33;;;2.25;;
19057;SDS011;9662;53.612;9.914;2022-08-21T05:42:30;2.00;;;1.90;;
19057;SDS011;9662;53.612;9.914;2022-08-21T05:44:57;2.85;;;2.60;;
19057;SDS011;9662;53.612;9.914;2022-08-21T05:47:24;4.13;;;2.28;;
19057;SDS011;9662;53.612;9.914;2022-08-21T05:49:51;7.88;;;2.50;;
19057;SDS011;9662;53.612;9.914;2022-08-21T05:52:18;5.00;;;3.08;;
19057;SDS011;9662;53.612;9.914;2022-08-21T05:54:47;2.60;;;2.50;;
19057;SDS011;9662;53.612;9.914;2022-08-21T05:57:14;3.10;;;2.90;;
19057;SDS011;9662;53.612;9.914;2022-08-21T05:59:40;3.95;;;2.45;;
19057;SDS011;9662;53.612;9.914;2022-08-21T06:02:07;2.90;;;2.70;;
19057;SDS011;9662;53.612;9.914;2022-08-21T06:04:35;2.60;;;2.40;;
19057;SDS011;9662;53.612;9.914;2022-08-21T06:07:02;3.15;;;2.85;;
19057;SDS011;9662;53.612;9.914;2022-08-21T06:09:29;4.18;;;2.85;;
19057;SDS011;9662;53.612;9.914;2022-08-21T06:11:57;3.03;;;2.55;;
19057;SDS011;9662;53.612;9.914;2022-08-21T06:14:24;3.28;;;3.08;;
19057;SDS011;9662;53.612;9.914;2022-08-21T06:16:50;2.80;;;2.60;;
19057;SDS011;9662;53.612;9.914;2022-08-21T06:19:17;3.03;;;2.72;;
19057;SDS011;9662;53.612;9.914;2022-08-21T06:21:44;2.65;;;2.55;;
19057;SDS011;9662;53.612;9.914;2022-08-21T06:24:11;2.70;;;2.50;;
19057;SDS011;9662;53.612;9.914;2022-08-21T06:26:38;4.80;;;2.90;;
19057;SDS011;9662;53.612;9.914;2022-08-21T06:29:06;2.60;;;2.50;;
19057;SDS011;9662;53.612;9.914;2022-08-21T06:31:35;2.50;;;2.30;;
19057;SDS011;9662;53.612;9.914;2022-08-21T06:34:02;3.35;;;3.05;;
19057;SDS011;9662;53.612;9.914;2022-08-21T06:36:29;3.50;;;2.60;;
19057;SDS011;9662;53.612;9.914;2022-08-21T06:38:55;2.40;;;2.30;;
19057;SDS011;9662;53.612;9.914;2022-08-21T06:41:22;2.85;;;2.60;;
19057;SDS011;9662;53.612;9.914;2022-08-21T06:43:49;2.95;;;2.10;;
19057;SDS011;9662;53.612;9.914;2022-08-21T06:46:17;4.97;;;2.38;;
19057;SDS011;9662;53.612;9.914;2022-08-21T06:48:44;1.90;;;1.77;;
19057;SDS011;9662;53.612;9.914;2022-08-21T06:51:10;6.03;;;2.00;;
19057;SDS011;9662;53.612;9.914;2022-08-21T06:53:37;3.05;;;1.98;;
19057;SDS011;9662;53.612;9.914;2022-08-21T06:56:04;1.75;;;1.65;;
19057;SDS011;9662;53.612;9.914;2022-08-21T06:58:31;2.10;;;1.80;;
19057;SDS011;9662;53.612;9.914;2022-08-21T07:00:58;2.58;;;1.30;;
19057;SDS011;9662;53.612;9.914;2022-08-21T07:03:28;1.77;;;1.27;;
19057;SDS011;9662;53.612;9.914;2022-08-21T07:05:57;1.70;;;1.58;;
19057;SDS011;9662;53.612;9.914;2022-08-21T07:08:24;1.50;;;1.23;;
19057;SDS011;9662;53.612;9.914;2022-08-21T07:10:52;2.40;;;1.30;;
19057;SDS011;9662;53.612;9.914;2022-08-21T07:13:21;1.30;;;1.30;;
19057;SDS011;9662;53.612;9.914;2022-08-21T07:15:48;1.17;;;1.02;;
19057;SDS011;9662;53.612;9.914;2022-08-21T07:18:15;1.20;;;1.10;;
19057;SDS011;9662;53.612;9.914;2022-08-21T07:20:43;3.47;;;1.10;;
19057;SDS011;9662;53.612;9.914;2022-08-21T07:23:12;1.33;;;1.20;;
19057;SDS011;9662;53.612;9.914;2022-08-21T07:25:50;1.15;;;1.15;;
19057;SDS011;9662;53.612;9.914;2022-08-21T07:28:17;1.83;;;1.15;;
19057;SDS011;9662;53.612;9.914;2022-08-21T07:30:44;2.40;;;1.37;;
19057;SDS011;9662;53.612;9.914;2022-08-21T07:33:11;2.90;;;1.10;;
19057;SDS011;9662;53.612;9.914;2022-08-21T07:35:38;1.70;;;1.30;;
19057;SDS011;9662;53.612;9.914;2022-08-21T07:38:06;1.33;;;1.10;;
19057;SDS011;9662;53.612;9.914;2022-08-21T07:40:33;1.52;;;1.10;;
19057;SDS011;9662;53.612;9.914;2022-08-21T07:43:00;2.15;;;1.20;;
19057;SDS011;9662;53.612;9.914;2022-08-21T07:45:27;2.97;;;1.40;;
19057;SDS011;9662;53.612;9.914;2022-08-21T07:47:55;2.35;;;1.00;;
19057;SDS011;9662;53.612;9.914;2022-08-21T07:50:22;2.00;;;1.10;;
19057;SDS011;9662;53.612;9.914;2022-08-21T07:52:49;1.23;;;1.13;;
19057;SDS011;9662;53.612;9.914;2022-08-21T07:55:18;2.00;;;1.00;;
19057;SDS011;9662;53.612;9.914;2022-08-21T07:57:46;1.67;;;1.30;;
19057;SDS011;9662;53.612;9.914;2022-08-21T08:00:15;3.20;;;1.48;;
19057;SDS011;9662;53.612;9.914;2022-08-21T08:02:44;2.45;;;1.67;;
19057;SDS011;9662;53.612;9.914;2022-08-21T08:05:14;1.83;;;1.13;;
19057;SDS011;9662;53.612;9.914;2022-08-21T08:07:41;6.63;;;1.42;;
19057;SDS011;9662;53.612;9.914;2022-08-21T08:10:08;3.95;;;1.23;;
19057;SDS011;9662;53.612;9.914;2022-08-21T08:12:38;2.25;;;1.40;;
19057;SDS011;9662;53.612;9.914;2022-08-21T08:15:08;2.67;;;1.27;;
19057;SDS011;9662;53.612;9.914;2022-08-21T08:17:37;4.23;;;1.20;;
19057;SDS011;9662;53.612;9.914;2022-08-21T08:20:04;1.77;;;1.48;;
19057;SDS011;9662;53.612;9.914;2022-08-21T08:22:33;2.60;;;1.60;;
19057;SDS011;9662;53.612;9.914;2022-08-21T08:25:02;1.52;;;1.33;;
19057;SDS011;9662;53.612;9.914;2022-08-21T08:27:29;7.43;;;1.95;;
19057;SDS011;9662;53.612;9.914;2022-08-21T08:30:00;3.70;;;1.63;;
19057;SDS011;9662;53.612;9.914;2022-08-21T08:32:27;1.67;;;1.50;;
19057;SDS011;9662;53.612;9.914;2022-08-21T08:34:54;3.33;;;1.52;;
19057;SDS011;9662;53.612;9.914;2022-08-21T08:37:21;2.80;;;1.57;;
19057;SDS011;9662;53.612;9.914;2022-08-21T08:39:47;1.42;;;1.33;;
19057;SDS011;9662;53.612;9.914;2022-08-21T08:42:16;42.13;;;3.53;;
19057;SDS011;9662;53.612;9.914;2022-08-21T08:44:47;3.15;;;1.50;;
19057;SDS011;9662;53.612;9.914;2022-08-21T08:47:17;8.17;;;1.80;;
19057;SDS011;9662;53.612;9.914;2022-08-21T08:49:47;4.40;;;1.80;;
19057;SDS011;9662;53.612;9.914;2022-08-21T08:52:20;2.67;;;1.60;;
19057;SDS011;9662;53.612;9.914;2022-08-21T08:54:55;3.17;;;1.83;;
19057;SDS011;9662;53.612;9.914;2022-08-21T08:57:28;2.47;;;1.48;;
19057;SDS011;9662;53.612;9.914;2022-08-21T08:59:57;3.15;;;2.10;;
19057;SDS011;9662;53.612;9.914;2022-08-21T09:02:27;1.98;;;1.63;;
19057;SDS011;9662;53.612;9.914;2022-08-21T09:04:54;4.20;;;1.60;;
19057;SDS011;9662;53.612;9.914;2022-08-21T09:07:24;2.85;;;1.48;;
19057;SDS011;9662;53.612;9.914;2022-08-21T09:10:03;4.73;;;2.07;;
19057;SDS011;9662;53.612;9.914;2022-08-21T09:12:38;4.25;;;2.00;;
19057;SDS011;9662;53.612;9.914;2022-08-21T09:15:12;3.60;;;1.60;;
19057;SDS011;9662;53.612;9.914;2022-08-21T09:17:50;3.58;;;1.70;;
19057;SDS011;9662;53.612;9.914;2022-08-21T09:20:28;5.55;;;2.00;;
19057;SDS011;9662;53.612;9.914;2022-08-21T09:23:06;5.40;;;1.60;;
19057;SDS011;9662;53.612;9.914;2022-08-21T09:25:46;2.53;;;1.65;;
19057;SDS011;9662;53.612;9.914;2022-08-21T09:28:21;4.03;;;1.52;;
19057;SDS011;9662;53.612;9.914;2022-08-21T09:30:48;1.85;;;1.60;;
19057;SDS011;9662;53.612;9.914;2022-08-21T09:33:18;4.00;;;1.60;;
19057;SDS011;9662;53.612;9.914;2022-08-21T09:35:49;4.00;;;1.63;;
19057;SDS011;9662;53.612;9.914;2022-08-21T09:38:23;3.60;;;1.73;;
19057;SDS011;9662;53.612;9.914;2022-08-21T09:40:55;5.38;;;1.70;;
19057;SDS011;9662;53.612;9.914;2022-08-21T09:43:24;1.67;;;1.58;;
19057;SDS011;9662;53.612;9.914;2022-08-21T09:46:01;4.28;;;1.88;;
19057;SDS011;9662;53.612;9.914;2022-08-21T09:48:37;4.18;;;1.95;;
19057;SDS011;9662;53.612;9.914;2022-08-21T09:51:10;4.75;;;1.60;;
19057;SDS011;9662;53.612;9.914;2022-08-21T09:53:39;2.00;;;1.80;;
19057;SDS011;9662;53.612;9.914;2022-08-21T09:56:16;9.02;;;1.85;;
19057;SDS011;9662;53.612;9.914;2022-08-21T09:59:12;2.50;;;1.67;;
19057;SDS011;9662;53.612;9.914;2022-08-21T10:01:42;1.30;;;1.20;;
19057;SDS011;9662;53.612;9.914;2022-08-21T10:04:11;3.30;;;1.47;;
19057;SDS011;9662;53.612;9.914;2022-08-21T10:06:38;1.70;;;1.40;;
19057;SDS011;9662;53.612;9.914;2022-08-21T10:09:06;1.83;;;1.67;;
19057;SDS011;9662;53.612;9.914;2022-08-21T10:11:34;4.40;;;1.70;;
19057;SDS011;9662;53.612;9.914;2022-08-21T10:14:05;1.60;;;1.30;;
19057;SDS011;9662;53.612;9.914;2022-08-21T10:16:40;3.10;;;1.58;;
19057;SDS011;9662;53.612;9.914;2022-08-21T10:19:17;1.58;;;1.48;;
19057;SDS011;9662;53.612;9.914;2022-08-21T10:21:56;8.15;;;1.77;;
19057;SDS011;9662;53.612;9.914;2022-08-21T10:24:34;1.40;;;1.30;;
19057;SDS011;9662;53.612;9.914;2022-08-21T10:27:10;1.77;;;1.60;;
19057;SDS011;9662;53.612;9.914;2022-08-21T10:29:47;4.07;;;1.70;;
19057;SDS011;9662;53.612;9.914;2022-08-21T10:32:23;1.85;;;1.40;;
19057;SDS011;9662;53.612;9.914;2022-08-21T10:35:10;1.87;;;1.43;;
19057;SDS011;9662;53.612;9.914;2022-08-21T10:37:43;5.40;;;1.48;;
19057;SDS011;9662;53.612;9.914;2022-08-21T10:40:21;1.52;;;1.42;;
19057;SDS011;9662;53.612;9.914;2022-08-21T10:42:56;2.13;;;1.30;;
19057;SDS011;9662;53.612;9.914;2022-08-21T10:45:40;3.30;;;1.60;;
19057;SDS011;9662;53.612;9.914;2022-08-21T10:48:20;4.60;;;1.80;;
19057;SDS011;9662;53.612;9.914;2022-08-21T10:50:54;4.37;;;1.40;;
19057;SDS011;9662;53.612;9.914;2022-08-21T10:53:36;1.33;;;1.23;;
19057;SDS011;9662;53.612;9.914;2022-08-21T10:56:13;3.40;;;1.70;;
19057;SDS011;9662;53.612;9.914;2022-08-21T10:58:45;1.75;;;1.65;;
19057;SDS011;9662;53.612;9.914;2022-08-21T11:01:24;2.00;;;1.30;;
19057;SDS011;9662;53.612;9.914;2022-08-21T11:03:54;1.67;;;1.38;;
19057;SDS011;9662;53.612;9.914;2022-08-21T11:06:36;3.15;;;1.55;;
19057;SDS011;9662;53.612;9.914;2022-08-21T11:09:09;2.08;;;1.30;;
19057;SDS011;9662;53.612;9.914;2022-08-21T11:11:39;2.20;;;1.50;;
19057;SDS011;9662;53.612;9.914;2022-08-21T11:14:13;2.63;;;1.70;;
19057;SDS011;9662;53.612;9.914;2022-08-21T11:16:52;1.63;;;1.52;;
19057;SDS011;9662;53.612;9.914;2022-08-21T11:19:24;2.95;;;1.67;;
19057;SDS011;9662;53.612;9.914;2022-08-21T11:21:58;1.63;;;1.38;;
19057;SDS011;9662;53.612;9.914;2022-08-21T11:24:34;4.07;;;1.60;;
19057;SDS011;9662;53.612;9.914;2022-08-21T11:27:06;3.53;;;1.13;;
19057;SDS011;9662;53.612;9.914;2022-08-21T11:29:41;3.45;;;1.40;;
19057;SDS011;9662;53.612;9.914;2022-08-21T11:32:32;1.25;;;1.23;;
19057;SDS011;9662;53.612;9.914;2022-08-21T11:35:21;2.65;;;1.65;;
19057;SDS011;9662;53.612;9.914;2022-08-21T11:38:00;1.20;;;1.13;;
19057;SDS011;9662;53.612;9.914;2022-08-21T11:40:40;3.90;;;1.30;;
19057;SDS011;9662;53.612;9.914;2022-08-21T11:43:17;2.03;;;1.60;;
19057;SDS011;9662;53.612;9.914;2022-08-21T11:45:52;1.33;;;1.20;;
19057;SDS011;9662;53.612;9.914;2022-08-21T11:48:30;1.67;;;1.15;;
19057;SDS011;9662;53.612;9.914;2022-08-21T11:51:05;3.03;;;1.30;;
19057;SDS011;9662;53.612;9.914;2022-08-21T11:53:38;1.20;;;1.20;;
19057;SDS011;9662;53.612;9.914;2022-08-21T11:56:11;2.07;;;1.53;;
19057;SDS011;9662;53.612;9.914;2022-08-21T11:58:43;1.45;;;1.23;;
19057;SDS011;9662;53.612;9.914;2022-08-21T12:01:15;1.58;;;1.48;;
19057;SDS011;9662;53.612;9.914;2022-08-21T12:03:50;1.43;;;1.33;;
19057;SDS011;9662;53.612;9.914;2022-08-21T12:06:27;2.72;;;1.50;;
19057;SDS011;9662;53.612;9.914;2022-08-21T12:08:59;4.10;;;1.30;;
19057;SDS011;9662;53.612;9.914;2022-08-21T12:11:29;3.80;;;1.30;;
19057;SDS011;9662;53.612;9.914;2022-08-21T12:13:57;2.60;;;1.48;;
19057;SDS011;9662;53.612;9.914;2022-08-21T12:16:30;1.52;;;1.27;;
19057;SDS011;9662;53.612;9.914;2022-08-21T12:19:05;1.10;;;1.10;;
19057;SDS011;9662;53.612;9.914;2022-08-21T12:21:33;1.40;;;1.30;;
19057;SDS011;9662;53.612;9.914;2022-08-21T12:24:17;1.30;;;1.20;;
19057;SDS011;9662;53.612;9.914;2022-08-21T12:26:48;1.30;;;1.20;;
19057;SDS011;9662;53.612;9.914;2022-08-21T12:29:21;1.48;;;1.27;;
19057;SDS011;9662;53.612;9.914;2022-08-21T12:31:55;1.30;;;1.20;;
19057;SDS011;9662;53.612;9.914;2022-08-21T12:34:28;1.30;;;1.30;;
19057;SDS011;9662;53.612;9.914;2022-08-21T12:37:00;1.00;;;1.00;;
19057;SDS011;9662;53.612;9.914;2022-08-21T12:39:32;2.20;;;1.23;;
19057;SDS011;9662;53.612;9.914;2022-08-21T12:42:04;2.25;;;1.23;;
19057;SDS011;9662;53.612;9.914;2022-08-21T12:44:35;1.50;;;1.10;;
19057;SDS011;9662;53.612;9.914;2022-08-21T12:47:12;2.80;;;1.27;;
19057;SDS011;9662;53.612;9.914;2022-08-21T12:49:44;1.50;;;1.30;;
19057;SDS011;9662;53.612;9.914;2022-08-21T12:52:19;0.98;;;0.98;;
19057;SDS011;9662;53.612;9.914;2022-08-21T12:54:49;2.88;;;2.20;;
19057;SDS011;9662;53.612;9.914;2022-08-21T12:57:20;3.55;;;3.35;;
19057;SDS011;9662;53.612;9.914;2022-08-21T12:59:53;2.40;;;1.55;;
19057;SDS011;9662;53.612;9.914;2022-08-21T13:02:22;1.90;;;1.13;;
19057;SDS011;9662;53.612;9.914;2022-08-21T13:04:51;0.90;;;0.90;;
19057;SDS011;9662;53.612;9.914;2022-08-21T13:07:22;1.17;;;1.17;;
19057;SDS011;9662;53.612;9.914;2022-08-21T13:09:54;1.10;;;1.07;;
19057;SDS011;9662;53.612;9.914;2022-08-21T13:12:24;1.50;;;1.38;;
19057;SDS011;9662;53.612;9.914;2022-08-21T13:14:52;1.55;;;1.25;;
19057;SDS011;9662;53.612;9.914;2022-08-21T13:17:23;2.43;;;1.63;;
19057;SDS011;9662;53.612;9.914;2022-08-21T13:19:55;2.42;;;1.10;;
19057;SDS011;9662;53.612;9.914;2022-08-21T13:22:23;1.55;;;1.02;;
19057;SDS011;9662;53.612;9.914;2022-08-21T13:24:50;1.35;;;1.10;;
19057;SDS011;9662;53.612;9.914;2022-08-21T13:27:21;2.20;;;1.00;;
19057;SDS011;9662;53.612;9.914;2022-08-21T13:30:00;1.77;;;0.90;;
19057;SDS011;9662;53.612;9.914;2022-08-21T13:32:33;1.83;;;1.00;;
19057;SDS011;9662;53.612;9.914;2022-08-21T13:35:10;1.00;;;1.00;;
19057;SDS011;9662;53.612;9.914;2022-08-21T13:37:38;3.00;;;1.17;;
19057;SDS011;9662;53.612;9.914;2022-08-21T13:40:07;1.60;;;1.10;;
19057;SDS011;9662;53.612;9.914;2022-08-21T13:42:39;1.40;;;1.17;;
19057;SDS011;9662;53.612;9.914;2022-08-21T13:45:11;1.00;;;1.00;;
19057;SDS011;9662;53.612;9.914;2022-08-21T13:47:40;1.10;;;1.00;;
19057;SDS011;9662;53.612;9.914;2022-08-21T13:50:07;1.65;;;1.35;;
19057;SDS011;9662;53.612;9.914;2022-08-21T13:52:44;1.10;;;1.00;;
19057;SDS011;9662;53.612;9.914;2022-08-21T13:55:16;1.15;;;1.15;;
19057;SDS011;9662;53.612;9.914;2022-08-21T13:57:45;0.90;;;0.90;;
19057;SDS011;9662;53.612;9.914;2022-08-21T14:00:13;1.90;;;1.00;;
19057;SDS011;9662;53.612;9.914;2022-08-21T14:02:43;3.60;;;1.10;;
19057;SDS011;9662;53.612;9.914;2022-08-21T14:05:16;1.17;;;1.05;;
19057;SDS011;9662;53.612;9.914;2022-08-21T14:07:47;1.10;;;1.00;;
19057;SDS011;9662;53.612;9.914;2022-08-21T14:10:17;1.75;;;1.38;;
19057;SDS011;9662;53.612;9.914;2022-08-21T14:12:48;2.50;;;1.40;;
19057;SDS011;9662;53.612;9.914;2022-08-21T14:15:18;1.17;;;1.10;;
19057;SDS011;9662;53.612;9.914;2022-08-21T14:17:50;1.75;;;1.10;;
19057;SDS011;9662;53.612;9.914;2022-08-21T14:20:26;1.38;;;1.33;;
19057;SDS011;9662;53.612;9.914;2022-08-21T14:22:56;2.70;;;1.20;;
19057;SDS011;9662;53.612;9.914;2022-08-21T14:25:27;2.38;;;1.10;;
19057;SDS011;9662;53.612;9.914;2022-08-21T14:27:58;1.75;;;1.10;;
19057;SDS011;9662;53.612;9.914;2022-08-21T14:30:30;1.30;;;0.90;;
19057;SDS011;9662;53.612;9.914;2022-08-21T14:33:00;0.80;;;0.80;;
19057;SDS011;9662;53.612;9.914;2022-08-21T14:35:28;2.30;;;1.60;;
19057;SDS011;9662;53.612;9.914;2022-08-21T14:37:54;1.05;;;0.88;;
19057;SDS011;9662;53.612;9.914;2022-08-21T14:40:22;1.25;;;1.15;;
19057;SDS011;9662;53.612;9.914;2022-08-21T14:42:50;0.93;;;0.90;;
19057;SDS011;9662;53.612;9.914;2022-08-21T14:45:22;2.22;;;1.00;;
19057;SDS011;9662;53.612;9.914;2022-08-21T14:47:52;1.10;;;1.00;;
19057;SDS011;9662;53.612;9.914;2022-08-21T14:50:19;0.90;;;0.90;;
19057;SDS011;9662;53.612;9.914;2022-08-21T14:52:45;0.80;;;0.80;;
19057;SDS011;9662;53.612;9.914;2022-08-21T14:55:13;0.90;;;0.90;;
19057;SDS011;9662;53.612;9.914;2022-08-21T14:57:41;1.08;;;1.08;;
19057;SDS011;9662;53.612;9.914;2022-08-21T15:00:13;0.77;;;0.77;;
19057;SDS011;9662;53.612;9.914;2022-08-21T15:02:44;0.80;;;0.80;;
19057;SDS011;9662;53.612;9.914;2022-08-21T15:05:12;1.65;;;1.20;;
19057;SDS011;9662;53.612;9.914;2022-08-21T15:07:39;1.00;;;1.00;;
19057;SDS011;9662;53.612;9.914;2022-08-21T15:10:06;0.98;;;0.98;;
19057;SDS011;9662;53.612;9.914;2022-08-21T15:12:34;4.10;;;1.00;;
19057;SDS011;9662;53.612;9.914;2022-08-21T15:15:02;1.10;;;1.00;;